KPRN

Mac Crenshaw Memorial Airport

Greenville, Alabama, USA
METAR KPRN 280056Z AUTO 08007KT 10SM -RA BKN045 BKN080 23/20 A2983 RMK AO2 RAB2359 SLP096 P0000 T02330200 TSNO
Observed Flight Rules
May-28 @ 00:56 UTC (31 minutes ago) Visual Flight Rules
Wind Visibility Clouds Conditions
80° at 7 knots 10 miles
  • Broken at 4,500' AGL
  • Broken at 8,000' AGL
  • Light Rain
Temperatures Readings Precipitation
Current 23°C / 73°F
Dewpoint 20°C / 68°F
Humidity 83%
Altimeter 29.83" Hg
Pressure 1009.6 hPa
Elevation 138
Current Rain 0.005
METAR KPRN 280056Z AUTO 08007KT 10SM -RA BKN045 BKN080 23/20 A2983 RMK AO2 RAB2359 SLP096 P0000 T02330200 TSNO
Observed Flight Rules
May-28 @ 00:56 UTC
(31 minutes ago)
VFR
Wind Visibility
80° at 7 knots 10 miles
Clouds
  • Broken at 4,500' AGL
  • Broken at 8,000' AGL
Conditions
  • Light Rain
Temperature Dewpoint
23°C / 73°F 20°C / 68°F
Humidity Altimeter Pressure
83% 29.83" Hg 1009.6 hPa
Current Rain
0.005